Richview, Illinois
Current Conditions -  °F | °C
As of 6:15 AM on Thursday 29 Jan 2015 (Local Time) from KENL Reporting Station
Clear Clear  
Wind Chill: 40°   Ceiling: Unl
Heat Index: 46°   Visibility: 10mi
Dew Point: 37°   Wind: 13mph
Humidity: 72%   Direction: 260°W
Pressure: 29.84"   Gusts: NA
Location:  38.38°N, 89.18°W
Report Text: KENL 291215Z AUTO 26011KT 10SM CLR 08/03 A2984 RMK AO2 T00780030
Loading
Personal Weather Stations






























Interactive Weather Map New forecast layout! Learn more

10-Day Weather Forecast

Advertisements
Track Severe Weather on mobile